Time;durP1;ratioP1;P1;durP2;ratioP2;P2;SDS_P1;SDS_P2;PMS_P1;PMS_P2;Temp;Humidity;BMP_temperature;BMP_pressure;BME280_temperature;BME280_humidity;BME280_pressure;Samples;Min_cycle;Max_cycle;Signal;HPM_P1;HPM_P2
2020/12/08 00:01:55;;;;;;;32.43;14.43;;;;;;;-1.90;71.56;98722.22;126009;1098;104909;-75
2020/12/08 00:04:22;;;;;;;32.93;15.23;;;;;;;-1.90;71.67;98732.65;125844;1100;104856;-74
2020/12/08 00:06:52;;;;;;;34.13;14.77;;;;;;;-1.90;71.64;98733.52;125862;1099;104446;-73
2020/12/08 00:09:19;;;;;;;33.17;14.20;;;;;;;-1.88;72.44;98729.13;126063;1099;104419;-74
2020/12/08 00:11:48;;;;;;;34.57;17.20;;;;;;;-1.91;71.40;98725.72;125874;1100;104500;-75
2020/12/08 00:14:15;;;;;;;34.37;14.57;;;;;;;-1.90;71.72;98733.52;126040;1098;104500;-74
2020/12/08 00:16:42;;;;;;;33.55;15.15;;;;;;;-1.90;71.84;98733.52;126023;1093;104567;-75
2020/12/08 00:19:10;;;;;;;33.80;14.37;;;;;;;-1.90;71.96;98730.91;125991;1098;104573;-78
2020/12/08 00:21:43;;;;;;;32.57;14.27;;;;;;;-1.91;71.52;98723.98;126122;1098;104497;-75
2020/12/08 00:24:11;;;;;;;36.00;14.73;;;;;;;-1.92;72.42;98722.28;126020;1093;105499;-79
2020/12/08 00:26:40;;;;;;;35.90;15.50;;;;;;;-1.92;71.87;98722.28;126079;1098;104419;-75
2020/12/08 00:29:08;;;;;;;35.33;15.40;;;;;;;-1.90;71.98;98722.22;126084;1098;104555;-75
2020/12/08 00:31:37;;;;;;;35.50;15.63;;;;;;;-1.89;71.69;98719.59;126015;1099;104564;-75
2020/12/08 00:34:06;;;;;;;37.35;17.95;;;;;;;-1.88;71.72;98721.30;125821;1100;104506;-75
2020/12/08 00:36:33;;;;;;;34.63;16.20;;;;;;;-1.87;71.71;98715.19;126035;1098;104605;-76
2020/12/08 00:39:00;;;;;;;36.90;16.33;;;;;;;-1.88;72.44;98717.82;125855;1100;104432;-75
2020/12/08 00:41:27;;;;;;;32.53;14.98;;;;;;;-1.89;71.65;98710.89;125900;1098;104617;-76
2020/12/08 00:43:54;;;;;;;32.17;14.73;;;;;;;-1.91;71.50;98712.69;125992;1098;104481;-74
2020/12/08 00:46:21;;;;;;;32.50;15.60;;;;;;;-1.95;71.66;98707.56;126101;1098;104439;-76
2020/12/08 00:48:48;;;;;;;32.60;15.43;;;;;;;-1.93;72.02;98714.48;125779;1100;104548;-74
2020/12/08 00:51:15;;;;;;;38.10;15.87;;;;;;;-1.96;72.57;98705.84;126158;1098;104916;-74
2020/12/08 00:53:42;;;;;;;35.60;16.20;;;;;;;-1.92;71.74;98710.98;126015;1098;104411;-75
2020/12/08 00:56:14;;;;;;;34.48;15.70;;;;;;;-1.96;72.19;98705.84;126028;1098;104522;-75
2020/12/08 00:58:41;;;;;;;37.47;16.93;;;;;;;-1.95;71.73;98710.16;126013;1098;104330;-74
2020/12/08 01:01:09;;;;;;;36.73;15.27;;;;;;;-1.96;71.63;98705.84;126047;1098;104481;-74
2020/12/08 01:03:37;;;;;;;32.87;15.30;;;;;;;-1.97;72.49;98711.95;126049;1098;104888;-74
2020/12/08 01:06:08;;;;;;;39.13;17.20;;;;;;;-1.93;71.77;98711.88;126043;1098;104484;-74
2020/12/08 01:08:35;;;;;;;32.53;14.20;;;;;;;-1.95;71.68;98714.54;126057;1099;104451;-75
2020/12/08 01:11:02;;;;;;;38.30;17.27;;;;;;;-1.96;72.46;98710.22;126082;1098;104423;-74
2020/12/08 01:13:34;;;;;;;36.33;16.13;;;;;;;-1.95;71.86;98709.33;126065;1099;104891;-73
2020/12/08 01:16:05;;;;;;;37.33;16.07;;;;;;;-1.94;71.75;98708.43;126022;1098;104429;-73
2020/12/08 01:18:32;;;;;;;33.20;15.47;;;;;;;-1.90;71.78;98701.36;126557;1098;104407;-74
2020/12/08 01:21:00;;;;;;;33.97;14.90;;;;;;;-1.91;71.72;98700.53;126017;1098;104435;-73
2020/12/08 01:23:28;;;;;;;34.03;14.43;;;;;;;-1.93;71.60;98706.66;125989;1098;104472;-73
2020/12/08 01:25:56;;;;;;;34.37;13.47;;;;;;;-1.97;71.29;98701.53;125913;1099;104987;-74
2020/12/08 01:28:23;;;;;;;36.67;17.30;;;;;;;-1.99;71.69;98702.48;126359;1101;104481;-73
2020/12/08 01:30:50;;;;;;;35.97;15.60;;;;;;;-1.99;72.37;98705.93;126040;1098;104478;-73
2020/12/08 01:33:16;;;;;;;31.73;13.75;;;;;;;-1.97;71.31;98714.56;125971;1098;104446;-74
2020/12/08 01:35:44;;;;;;;30.40;13.67;;;;;;;-1.97;71.54;98718.94;125868;1100;104407;-74
2020/12/08 01:38:11;;;;;;;34.83;16.27;;;;;;;-1.98;71.88;98712.02;126069;1098;104417;-74
2020/12/08 01:40:38;;;;;;;36.70;16.73;;;;;;;-1.98;71.63;98710.25;126096;1098;104416;-74
2020/12/08 01:43:05;;;;;;;32.23;15.20;;;;;;;-1.96;71.38;98713.67;126124;1098;104413;-73
2020/12/08 01:45:32;;;;;;;35.80;16.30;;;;;;;-1.92;72.65;98719.67;125839;1098;104517;-75
2020/12/08 01:47:59;;;;;;;34.53;16.53;;;;;;;-1.92;71.95;98717.06;125885;1093;104485;-73
2020/12/08 01:50:27;;;;;;;33.57;15.07;;;;;;;-1.91;71.82;98713.56;126739;1101;104439;-74
2020/12/08 01:52:54;;;;;;;32.67;14.67;;;;;;;-1.89;71.75;98716.98;125989;1098;104547;-75
2020/12/08 01:55:21;;;;;;;35.90;15.30;;;;;;;-1.89;72.41;98713.50;126087;1098;104522;-74
2020/12/08 01:57:48;;;;;;;33.57;15.13;;;;;;;-1.89;72.25;98709.16;125805;1100;104519;-73
2020/12/08 02:00:15;;;;;;;36.03;16.47;;;;;;;-1.87;72.51;98709.98;126113;1098;104475;-74
2020/12/08 02:02:44;;;;;;;36.42;17.90;;;;;;;-1.85;71.85;98708.19;125864;1098;104612;-73
2020/12/08 02:05:12;;;;;;;34.73;15.13;;;;;;;-1.82;71.52;98708.06;126069;1098;104413;-74
2020/12/08 02:07:44;;;;;;;36.45;16.20;;;;;;;-1.82;71.86;98707.23;126076;1098;105003;-73
2020/12/08 02:10:13;;;;;;;36.60;16.17;;;;;;;-1.78;72.93;98707.98;126731;1093;103175;-73
2020/12/08 02:12:40;;;;;;;37.45;17.10;;;;;;;-1.77;71.88;98705.34;126462;1098;104432;-73
2020/12/08 02:15:07;;;;;;;36.63;16.87;;;;;;;-1.75;72.42;98700.08;126025;1098;104414;-74
2020/12/08 02:17:34;;;;;;;36.68;16.70;;;;;;;-1.74;72.67;98704.39;125779;1098;104418;-73
2020/12/08 02:20:01;;;;;;;33.47;14.77;;;;;;;-1.79;71.85;98701.93;125812;1101;104478;-73
2020/12/08 02:22:27;;;;;;;31.90;16.15;;;;;;;-1.81;72.37;98701.95;125973;1100;104417;-73
2020/12/08 02:24:54;;;;;;;30.60;14.37;;;;;;;-1.84;72.31;98698.59;126000;1098;104500;-74
2020/12/08 02:27:21;;;;;;;30.92;13.55;;;;;;;-1.87;71.78;98696.94;125986;1100;104534;-73
2020/12/08 02:29:48;;;;;;;31.37;15.17;;;;;;;-1.89;72.59;98692.65;125818;1101;104485;-74
2020/12/08 02:32:15;;;;;;;33.50;17.63;;;;;;;-1.88;72.68;98696.97;126586;1099;104472;-74
2020/12/08 02:34:42;;;;;;;37.00;16.37;;;;;;;-1.88;72.33;98703.05;126012;1098;104421;-73
2020/12/08 02:37:09;;;;;;;33.43;15.70;;;;;;;-1.88;72.95;98691.75;125917;1101;104478;-74
2020/12/08 02:39:36;;;;;;;39.50;16.57;;;;;;;-1.88;71.82;98695.23;126051;1098;104475;-74
2020/12/08 02:42:05;;;;;;;31.60;15.40;;;;;;;-1.87;72.63;98691.73;126061;1093;104580;-74
2020/12/08 02:44:31;;;;;;;35.00;16.48;;;;;;;-1.84;71.66;98690.77;126325;1098;104462;-74
2020/12/08 02:46:59;;;;;;;34.97;16.40;;;;;;;-1.85;71.51;98687.33;126043;1098;104417;-73
2020/12/08 02:49:31;;;;;;;36.70;16.40;;;;;;;-1.88;71.81;98691.75;126324;1098;104497;-74
2020/12/08 02:51:59;;;;;;;34.90;16.10;;;;;;;-1.91;72.46;98702.27;126005;1098;104483;-74
2020/12/08 02:54:25;;;;;;;34.30;16.80;;;;;;;-1.88;72.27;98702.18;126009;1098;104490;-73
2020/12/08 02:56:52;;;;;;;37.47;17.17;;;;;;;-1.87;71.73;98699.55;125904;1099;104445;-73
2020/12/08 02:59:19;;;;;;;35.10;16.35;;;;;;;-1.87;72.08;98704.76;126085;1098;104439;-74
2020/12/08 03:01:46;;;;;;;33.70;16.63;;;;;;;-1.86;71.74;98696.05;126615;1099;104500;-74
2020/12/08 03:04:13;;;;;;;37.60;16.77;;;;;;;-1.83;71.91;98697.70;125962;1101;104862;-73
2020/12/08 03:06:42;;;;;;;36.20;16.10;;;;;;;-1.83;71.87;98690.71;126846;1100;102798;-73
2020/12/08 03:09:09;;;;;;;36.73;16.73;;;;;;;-1.82;72.67;98691.59;126043;1098;104417;-74
2020/12/08 03:11:35;;;;;;;36.10;16.93;;;;;;;-1.83;72.82;98695.92;125990;1098;104414;-73
2020/12/08 03:14:02;;;;;;;34.57;15.43;;;;;;;-1.86;72.40;98697.78;126000;1098;104570;-75
2020/12/08 03:16:29;;;;;;;33.83;17.23;;;;;;;-1.88;72.03;98703.05;126042;1098;104583;-73
2020/12/08 03:18:56;;;;;;;33.50;15.93;;;;;;;-1.87;71.80;98702.16;125908;1100;104481;-73
2020/12/08 03:21:24;;;;;;;31.60;14.57;;;;;;;-1.89;72.55;98692.65;126102;1098;104475;-74
2020/12/08 03:23:51;;;;;;;36.70;15.65;;;;;;;-1.91;72.52;98686.62;125866;1098;104417;-75
2020/12/08 03:26:23;;;;;;;27.17;11.63;;;;;;;-1.92;71.63;98691.00;125916;1101;104417;-72
2020/12/08 03:28:53;;;;;;;37.90;15.63;;;;;;;-2.01;71.77;98701.67;126084;1098;104542;-73
2020/12/08 03:31:20;;;;;;;38.07;18.57;;;;;;;-1.99;71.96;98705.09;126106;1098;104554;-74
2020/12/08 03:33:47;;;;;;;32.97;14.73;;;;;;;-1.96;72.73;98705.84;125827;1098;104499;-73
2020/12/08 03:36:18;;;;;;;37.30;16.80;;;;;;;-1.94;71.61;98708.43;125848;1098;104551;-73
2020/12/08 03:38:47;;;;;;;31.93;15.10;;;;;;;-1.93;72.72;98704.92;126030;1098;104522;-74
2020/12/08 03:41:22;;;;;;;38.77;18.07;;;;;;;-1.95;72.18;98711.93;126102;1098;104554;-73
2020/12/08 03:43:50;;;;;;;37.85;16.90;;;;;;;-1.94;71.89;98708.43;126197;1099;104599;-73
2020/12/08 03:46:20;;;;;;;35.30;17.20;;;;;;;-1.93;72.22;98707.53;126098;1098;104458;-73
2020/12/08 03:48:47;;;;;;;35.57;16.33;;;;;;;-1.93;72.33;98709.27;126160;1098;105041;-73
2020/12/08 03:51:17;;;;;;;33.67;16.33;;;;;;;-1.96;72.58;98716.27;125896;1098;104567;-72
2020/12/08 03:53:46;;;;;;;34.63;14.63;;;;;;;-1.97;72.58;98713.73;126513;1099;104446;-74
2020/12/08 03:56:15;;;;;;;35.73;15.97;;;;;;;-1.98;72.60;98717.23;127135;1100;103300;-74
2020/12/08 03:58:43;;;;;;;33.73;15.30;;;;;;;-1.97;71.64;98713.73;126008;1100;104421;-71
2020/12/08 04:01:18;;;;;;;34.63;14.23;;;;;;;-1.97;72.63;98706.74;125998;1098;104459;-73
2020/12/08 04:03:47;;;;;;;35.93;15.23;;;;;;;-1.96;72.61;98716.27;126849;1098;104410;-72
2020/12/08 04:06:15;;;;;;;35.15;15.70;;;;;;;-1.91;72.19;98723.12;125831;1093;104667;-72
2020/12/08 04:08:44;;;;;;;35.20;16.30;;;;;;;-1.92;72.40;98713.59;126033;1098;105056;-71
2020/12/08 04:11:15;;;;;;;36.90;16.57;;;;;;;-1.89;72.22;98724.80;127144;1098;103134;-74
2020/12/08 04:13:43;;;;;;;31.57;14.93;;;;;;;-1.89;72.10;98724.80;126061;1098;104920;-74
2020/12/08 04:16:14;;;;;;;35.23;14.90;;;;;;;-1.88;71.83;98721.30;126017;1098;104577;-74
2020/12/08 04:18:42;;;;;;;33.90;16.30;;;;;;;-1.87;72.79;98722.14;125832;1100;104567;-74
2020/12/08 04:21:09;;;;;;;34.17;14.80;;;;;;;-1.84;72.22;98716.84;126066;1098;104484;-74
2020/12/08 04:23:36;;;;;;;34.00;15.60;;;;;;;-1.83;71.83;98721.16;125996;1098;104547;-74
2020/12/08 04:26:02;;;;;;;34.17;16.43;;;;;;;-1.81;72.43;98724.58;127289;1099;104417;-74
2020/12/08 04:28:29;;;;;;;33.35;15.55;;;;;;;-1.81;72.66;98720.20;125810;1101;104602;-73
2020/12/08 04:31:00;;;;;;;35.20;16.65;;;;;;;-1.78;72.72;98721.02;125916;1098;104478;-74
2020/12/08 04:33:27;;;;;;;34.93;16.20;;;;;;;-1.75;71.66;98713.98;127390;1098;103204;-73
2020/12/08 04:35:54;;;;;;;32.93;16.57;;;;;;;-1.70;72.61;98712.11;126007;1098;104647;-74
2020/12/08 04:38:22;;;;;;;31.43;14.13;;;;;;;-1.69;72.23;98713.81;125942;1098;104430;-72
2020/12/08 04:40:50;;;;;;;31.60;14.30;;;;;;;-1.69;71.84;98720.77;125939;1100;104429;-74
2020/12/08 04:43:22;;;;;;;35.13;16.30;;;;;;;-1.72;72.21;98728.67;126634;1098;104423;-77
2020/12/08 04:45:54;;;;;;;33.23;15.57;;;;;;;-1.71;72.26;98725.17;125857;1100;104584;-73
2020/12/08 04:48:24;;;;;;;33.37;15.00;;;;;;;-1.70;72.67;98738.19;126008;1098;104520;-75
2020/12/08 04:50:51;;;;;;;34.63;14.67;;;;;;;-1.69;71.78;98742.50;126211;1100;104567;-75
2020/12/08 04:53:21;;;;;;;32.47;16.17;;;;;;;-1.66;71.91;98733.72;125893;1100;104564;-74
2020/12/08 04:55:49;;;;;;;31.20;14.20;;;;;;;-1.66;72.11;98738.94;125864;1100;104522;-73
2020/12/08 04:58:17;;;;;;;31.17;13.73;;;;;;;-1.68;71.62;98739.00;126096;1100;104552;-74
2020/12/08 05:00:46;;;;;;;33.03;14.60;;;;;;;-1.69;71.52;98739.89;125971;1098;104454;-74
2020/12/08 05:03:13;;;;;;;31.67;14.47;;;;;;;-1.71;72.41;98746.03;125987;1098;104602;-74
2020/12/08 05:05:42;;;;;;;30.80;15.03;;;;;;;-1.72;71.84;98741.72;125825;1093;105115;-75
2020/12/08 05:08:13;;;;;;;31.50;15.20;;;;;;;-1.71;71.52;98743.42;126422;1098;104474;-74
2020/12/08 05:10:41;;;;;;;31.00;15.30;;;;;;;-1.72;71.87;98742.59;126420;1100;104494;-73
2020/12/08 05:13:19;;;;;;;30.53;13.67;;;;;;;-1.73;71.85;98740.88;126177;1100;104475;-74
2020/12/08 05:16:06;;;;;;;35.05;15.30;;;;;;;-1.72;71.53;98739.98;126223;1099;104435;-73
2020/12/08 05:18:36;;;;;;;30.87;14.30;;;;;;;-1.72;71.84;98742.59;125971;1099;104475;-75
2020/12/08 05:21:11;;;;;;;33.73;15.57;;;;;;;-1.73;72.61;98742.61;126147;1100;104410;-79
2020/12/08 05:23:38;;;;;;;35.67;16.30;;;;;;;-1.74;71.55;98743.51;125947;1096;104516;-77
2020/12/08 05:26:08;;;;;;;32.48;14.50;;;;;;;-1.77;72.07;98749.68;126043;1093;104421;-74
2020/12/08 05:28:37;;;;;;;36.60;17.07;;;;;;;-1.79;71.88;98754.08;125879;1100;105024;-73
2020/12/08 05:31:07;;;;;;;31.53;15.00;;;;;;;-1.77;72.50;98751.41;125828;1100;104423;-74
2020/12/08 05:33:36;;;;;;;33.97;16.57;;;;;;;-1.80;71.83;98744.55;126316;1100;104433;-74
2020/12/08 05:36:06;;;;;;;36.00;17.65;;;;;;;-1.82;72.03;98747.17;126045;1098;104474;-78
2020/12/08 05:38:35;;;;;;;31.93;15.60;;;;;;;-1.80;72.67;98752.37;126212;1098;104919;-73
2020/12/08 05:41:04;;;;;;;34.97;14.53;;;;;;;-1.82;71.62;98760.22;126115;1098;104641;-75
2020/12/08 05:43:42;;;;;;;33.70;15.00;;;;;;;-1.86;72.59;98761.22;125843;1100;104701;-73
2020/12/08 05:46:10;;;;;;;30.77;14.17;;;;;;;-1.87;72.64;98763.86;126090;1098;104423;-73
2020/12/08 05:48:38;;;;;;;34.87;15.90;;;;;;;-1.86;71.84;98769.05;126093;1094;104561;-74
2020/12/08 05:51:07;;;;;;;33.53;15.83;;;;;;;-1.84;72.70;98771.59;126107;1093;104417;-75
2020/12/08 05:53:34;;;;;;;35.90;17.10;;;;;;;-1.83;72.63;98768.09;126090;1098;104426;-73
2020/12/08 05:56:06;;;;;;;32.67;16.60;;;;;;;-1.85;71.79;98775.97;126023;1100;104433;-74
2020/12/08 05:58:35;;;;;;;35.23;16.23;;;;;;;-1.90;72.78;98775.23;125969;1100;105055;-72
2020/12/08 06:01:06;;;;;;;33.13;16.20;;;;;;;-1.91;71.90;98777.86;126069;1098;104573;-71
2020/12/08 06:03:36;;;;;;;31.53;14.17;;;;;;;-1.97;72.50;98777.12;125871;1100;104426;-74
2020/12/08 06:06:10;;;;;;;35.10;15.90;;;;;;;-2.05;71.69;98779.10;125956;1100;104525;-74
2020/12/08 06:08:46;;;;;;;30.95;13.90;;;;;;;-2.06;72.94;98772.18;125999;1098;104577;-73
2020/12/08 06:11:29;;;;;;;32.63;15.87;;;;;;;-2.04;71.90;98777.34;125980;1100;104417;-75
2020/12/08 06:13:56;;;;;;;33.90;16.07;;;;;;;-2.02;71.89;98783.37;125937;1099;104441;-74
2020/12/08 06:16:24;;;;;;;37.40;17.63;;;;;;;-2.00;72.11;98787.63;125932;1098;104436;-73
2020/12/08 06:18:52;;;;;;;35.13;15.67;;;;;;;-1.99;72.55;98786.73;125988;1094;104432;-72
2020/12/08 06:21:26;;;;;;;37.80;18.10;;;;;;;-2.03;72.08;98777.28;125955;1100;104532;-72
2020/12/08 06:23:57;;;;;;;35.87;15.97;;;;;;;-2.03;71.77;98781.66;125917;1098;104867;-72
2020/12/08 06:26:27;;;;;;;34.73;15.63;;;;;;;-2.05;72.42;98778.23;125879;1098;104542;-72
2020/12/08 06:28:55;;;;;;;33.20;14.37;;;;;;;-2.10;71.70;98784.41;125913;1100;104942;-73
2020/12/08 06:31:23;;;;;;;32.30;13.95;;;;;;;-2.14;71.54;98785.39;126103;1093;104531;-74
2020/12/08 06:33:56;;;;;;;33.37;14.33;;;;;;;-2.19;71.89;98787.25;126085;1093;104922;-73
2020/12/08 06:36:27;;;;;;;34.53;16.55;;;;;;;-2.22;72.60;98782.11;125995;1100;104478;-73
2020/12/08 06:39:07;;;;;;;37.27;16.70;;;;;;;-2.18;72.63;98793.33;125939;1100;105086;-73
2020/12/08 06:41:40;;;;;;;40.60;18.00;;;;;;;-2.14;71.86;98792.36;126057;1093;104445;-73
2020/12/08 06:44:20;;;;;;;30.52;13.45;;;;;;;-2.12;71.36;98791.41;125914;1100;104539;-73
2020/12/08 06:46:58;;;;;;;35.30;16.10;;;;;;;-2.14;71.69;98790.59;126060;1093;104477;-74
2020/12/08 06:49:34;;;;;;;37.77;16.67;;;;;;;-2.14;71.70;98794.97;126097;1093;104871;-75
2020/12/08 06:52:03;;;;;;;33.77;16.63;;;;;;;-2.10;71.83;98799.21;126118;1093;104423;-74
2020/12/08 06:54:30;;;;;;;34.37;15.50;;;;;;;-2.11;71.59;98794.89;125938;1099;104442;-74
2020/12/08 06:57:05;;;;;;;36.07;17.43;;;;;;;-2.13;72.33;98796.69;126203;1098;104461;-74
2020/12/08 06:59:32;;;;;;;33.60;15.60;;;;;;;-2.13;71.67;98791.47;125944;1100;104605;-73
2020/12/08 07:01:59;;;;;;;28.87;12.80;;;;;;;-2.12;71.67;98794.02;126132;1098;104481;-72
2020/12/08 07:04:28;;;;;;;39.18;17.10;;;;;;;-2.14;72.16;98798.42;125942;1100;104583;-74
2020/12/08 07:06:59;;;;;;;35.77;16.73;;;;;;;-2.14;71.86;98802.79;126108;1098;105612;-75
2020/12/08 07:09:32;;;;;;;38.83;17.20;;;;;;;-2.07;71.88;98806.09;126149;1098;104444;-76
2020/12/08 07:12:04;;;;;;;38.03;17.90;;;;;;;-2.01;72.85;98808.54;125914;1100;104536;-76
2020/12/08 07:14:36;;;;;;;29.83;12.83;;;;;;;-1.90;72.77;98809.12;125977;1100;104452;-80
2020/12/08 07:17:05;;;;;;;32.33;14.83;;;;;;;-1.89;71.90;98807.36;126202;1100;104446;-73
2020/12/08 07:19:32;;;;;;;35.30;15.40;;;;;;;-1.83;71.95;98809.81;125892;1098;104613;-75
2020/12/08 07:22:08;;;;;;;28.77;12.73;;;;;;;-1.78;72.33;98796.64;125890;1101;104526;-74
2020/12/08 07:24:43;;;;;;;34.97;17.70;;;;;;;-1.85;71.31;98796.83;126079;1098;104545;-74
2020/12/08 07:27:12;;;;;;;34.53;15.63;;;;;;;-1.82;71.81;98801.94;126142;1098;104439;-75
2020/12/08 07:29:41;;;;;;;35.10;16.17;;;;;;;-1.82;72.22;98798.48;125893;1099;104497;-73
2020/12/08 07:32:08;;;;;;;33.03;14.83;;;;;;;-1.79;72.73;98801.02;125888;1099;104551;-73
2020/12/08 07:34:35;;;;;;;40.30;17.43;;;;;;;-1.75;72.33;98791.34;125941;1099;104446;-76
2020/12/08 07:37:02;;;;;;;32.53;14.73;;;;;;;-1.73;71.69;98798.25;126022;1098;104984;-73
2020/12/08 07:39:30;;;;;;;29.90;13.20;;;;;;;-1.69;71.84;98796.40;125861;1093;104557;-74
2020/12/08 07:42:04;;;;;;;34.48;16.07;;;;;;;-1.67;72.66;98798.09;125895;1093;104592;-74
2020/12/08 07:44:31;;;;;;;36.87;17.27;;;;;;;-1.61;72.26;98804.00;125728;1093;104516;-73
2020/12/08 07:47:00;;;;;;;33.88;15.95;;;;;;;-1.54;72.79;98808.16;125998;1093;104890;-75
2020/12/08 07:49:26;;;;;;;34.83;16.60;;;;;;;-1.50;72.97;98809.79;126004;1093;104539;-75
2020/12/08 07:51:53;;;;;;;36.65;17.75;;;;;;;-1.43;73.00;98813.11;125859;1093;104983;-71
2020/12/08 07:54:29;;;;;;;34.20;15.80;;;;;;;-1.36;72.22;98812.88;126070;1093;104628;-73
2020/12/08 07:56:56;;;;;;;32.30;15.77;;;;;;;-1.32;73.01;98807.58;125916;1098;104439;-73
2020/12/08 07:59:23;;;;;;;32.05;15.35;;;;;;;-1.27;72.77;98813.53;125918;1099;104420;-73
2020/12/08 08:01:51;;;;;;;35.23;16.40;;;;;;;-1.24;72.87;98816.89;125943;1098;104479;-71
2020/12/08 08:04:19;;;;;;;34.67;16.50;;;;;;;-1.19;72.19;98819.36;125998;1100;104926;-71
2020/12/08 08:06:46;;;;;;;34.03;17.93;;;;;;;-1.14;72.05;98816.63;126036;1100;104551;-71
2020/12/08 08:09:13;;;;;;;38.77;18.10;;;;;;;-1.09;71.77;98818.20;126114;1093;104424;-71
2020/12/08 08:11:40;;;;;;;33.43;15.53;;;;;;;-1.06;71.97;98817.27;125957;1099;104548;-72
2020/12/08 08:14:07;;;;;;;33.60;15.83;;;;;;;-1.06;72.49;98819.88;125945;1100;104917;-72
2020/12/08 08:16:36;;;;;;;34.30;16.35;;;;;;;-1.06;71.73;98823.33;126036;1098;104426;-72
2020/12/08 08:19:03;;;;;;;33.07;15.43;;;;;;;-1.02;72.63;98820.63;126037;1093;104561;-71
2020/12/08 08:21:31;;;;;;;33.77;14.87;;;;;;;-0.99;72.53;98836.21;125663;1096;104615;-71
2020/12/08 08:23:59;;;;;;;30.93;15.47;;;;;;;-0.98;71.81;98828.32;125969;1098;104542;-72
2020/12/08 08:26:27;;;;;;;35.53;17.67;;;;;;;-0.97;72.05;98827.42;125938;1100;104479;-72
2020/12/08 08:28:55;;;;;;;32.83;14.43;;;;;;;-0.97;71.96;98827.42;125786;1100;104411;-73
2020/12/08 08:31:22;;;;;;;32.25;16.25;;;;;;;-1.02;72.17;98834.56;125742;1098;104567;-73
2020/12/08 08:33:50;;;;;;;34.27;17.17;;;;;;;-1.02;72.65;98831.95;125707;1098;104417;-73
2020/12/08 08:36:17;;;;;;;37.03;16.90;;;;;;;-1.02;71.69;98846.73;125989;1098;104442;-73
2020/12/08 08:38:44;;;;;;;30.40;15.97;;;;;;;-1.01;72.29;98845.84;125879;1098;104435;-73
2020/12/08 08:41:11;;;;;;;33.67;15.57;;;;;;;-1.00;72.44;98839.72;125944;1098;104475;-76
2020/12/08 08:43:39;;;;;;;30.90;14.53;;;;;;;-0.97;72.63;98832.64;125880;1093;104424;-75
2020/12/08 08:46:06;;;;;;;35.43;16.03;;;;;;;-0.93;72.23;98838.65;126037;1098;104442;-73
2020/12/08 08:48:34;;;;;;;30.73;14.43;;;;;;;-0.94;71.89;98835.16;125892;1093;104542;-72
2020/12/08 08:51:07;;;;;;;35.15;17.65;;;;;;;-0.96;72.07;98836.97;126016;1093;104413;-71
2020/12/08 08:53:34;;;;;;;33.87;16.97;;;;;;;-0.98;71.52;98846.59;125959;1093;104501;-72
2020/12/08 08:56:01;;;;;;;35.15;17.35;;;;;;;-0.97;72.37;98837.02;125799;1093;104461;-74
2020/12/08 08:58:28;;;;;;;32.35;16.70;;;;;;;-0.98;72.66;98841.38;125983;1093;104417;-76
2020/12/08 09:00:57;;;;;;;29.67;13.60;;;;;;;-0.96;72.29;98831.74;125959;1093;104478;-73
2020/12/08 09:03:26;;;;;;;35.63;16.27;;;;;;;-0.94;72.46;98827.33;125823;1093;104411;-75
2020/12/08 09:05:53;;;;;;;33.15;15.25;;;;;;;-0.91;71.59;98836.84;125999;1093;104439;-74
2020/12/08 09:08:24;;;;;;;41.87;20.50;;;;;;;-0.88;71.69;98828.05;125963;1093;104551;-73
2020/12/08 09:10:53;;;;;;;32.80;16.17;;;;;;;-0.86;72.05;98828.86;125948;1093;104547;-73
2020/12/08 09:13:22;;;;;;;33.17;15.87;;;;;;;-0.84;72.37;98833.16;125927;1093;104547;-75
2020/12/08 09:15:49;;;;;;;34.33;15.97;;;;;;;-0.84;72.67;98827.06;125775;1093;104692;-74
2020/12/08 09:18:17;;;;;;;33.40;16.73;;;;;;;-0.82;72.70;98828.75;125887;1093;104486;-73
2020/12/08 09:20:44;;;;;;;31.70;15.55;;;;;;;-0.77;72.00;98828.59;126234;1093;102718;-73
2020/12/08 09:23:11;;;;;;;32.37;16.27;;;;;;;-0.73;72.12;98830.22;125901;1100;104602;-74
2020/12/08 09:25:38;;;;;;;32.33;15.50;;;;;;;-0.71;72.41;98823.19;126035;1098;104910;-74
2020/12/08 09:28:05;;;;;;;35.80;17.35;;;;;;;-0.68;72.24;98827.45;126063;1098;104481;-73
2020/12/08 09:30:33;;;;;;;34.93;16.47;;;;;;;-0.63;72.21;98823.81;126069;1098;104432;-72
2020/12/08 09:33:00;;;;;;;31.33;15.40;;;;;;;-0.59;72.00;98821.95;125971;1099;104477;-72
2020/12/08 09:35:31;;;;;;;34.27;17.93;;;;;;;-0.56;72.46;98820.98;125828;1101;104504;-72
2020/12/08 09:38:07;;;;;;;36.47;16.43;;;;;;;-0.54;71.77;98819.18;125961;1093;104420;-74
2020/12/08 09:40:41;;;;;;;33.03;15.47;;;;;;;-0.53;72.54;98820.89;125832;1093;104482;-72
2020/12/08 09:43:11;;;;;;;31.53;15.50;;;;;;;-0.56;71.88;98816.62;125925;1093;104484;-70
2020/12/08 09:45:38;;;;;;;32.97;17.20;;;;;;;-0.53;72.45;98818.28;125837;1099;104570;-72
2020/12/08 09:48:05;;;;;;;36.47;18.77;;;;;;;-0.52;72.50;98819.98;125723;1100;104545;-72
2020/12/08 09:50:33;;;;;;;35.97;17.37;;;;;;;-0.55;71.67;98820.95;125719;1101;104442;-72
2020/12/08 09:53:00;;;;;;;36.60;17.73;;;;;;;-0.47;72.47;98821.58;126042;1093;104897;-72
2020/12/08 09:55:27;;;;;;;33.67;15.53;;;;;;;-0.42;72.18;98817.96;125812;1093;104509;-72
2020/12/08 09:57:54;;;;;;;34.67;17.27;;;;;;;-0.39;72.55;98823.06;125810;1093;105051;-74
2020/12/08 10:00:22;;;;;;;33.03;16.30;;;;;;;-0.37;72.54;98818.64;125887;1093;104548;-71
2020/12/08 10:02:49;;;;;;;35.67;17.60;;;;;;;-0.35;72.66;98822.06;125882;1093;104891;-72
2020/12/08 10:05:17;;;;;;;36.63;19.03;;;;;;;-0.32;72.38;98816.74;125938;1093;104576;-74
2020/12/08 10:07:44;;;;;;;31.73;16.90;;;;;;;-0.30;71.79;98814.94;125953;1093;104480;-73
2020/12/08 10:10:11;;;;;;;35.70;16.57;;;;;;;-0.29;72.30;98821.88;126139;1098;104673;-72
2020/12/08 10:12:40;;;;;;;39.97;20.43;;;;;;;-0.27;71.67;98819.22;125955;1100;104503;-71
2020/12/08 10:15:06;;;;;;;37.70;18.33;;;;;;;-0.26;72.54;98819.16;125957;1098;104499;-71
2020/12/08 10:17:34;;;;;;;34.23;16.60;;;;;;;-0.24;72.06;98817.36;125895;1099;104500;-72
2020/12/08 10:20:00;;;;;;;41.17;20.07;;;;;;;-0.23;72.02;98805.99;126022;1097;104477;-73
2020/12/08 10:22:28;;;;;;;49.93;23.13;;;;;;;-0.21;72.50;98811.19;125841;1099;104542;-72
2020/12/08 10:24:55;;;;;;;34.47;16.50;;;;;;;-0.20;72.53;98812.87;125999;1098;104436;-71
2020/12/08 10:27:22;;;;;;;37.27;18.47;;;;;;;-0.20;71.97;98808.51;126039;1098;104468;-71
2020/12/08 10:29:49;;;;;;;34.73;17.10;;;;;;;-0.20;72.23;98813.73;126036;1098;104478;-71
2020/12/08 10:32:18;;;;;;;36.07;18.33;;;;;;;-0.17;72.10;98810.16;125823;1100;104433;-73
2020/12/08 10:34:45;;;;;;;34.73;16.67;;;;;;;-0.14;72.29;98806.60;126080;1098;104542;-72
2020/12/08 10:37:14;;;;;;;36.23;18.03;;;;;;;-0.13;72.36;98803.08;125954;1093;104499;-74
2020/12/08 10:39:41;;;;;;;34.63;16.33;;;;;;;-0.08;72.28;98801.17;125993;1093;104487;-74
2020/12/08 10:42:08;;;;;;;35.07;17.63;;;;;;;-0.04;72.19;98802.78;125952;1093;104500;-73
2020/12/08 10:44:38;;;;;;;37.03;17.47;;;;;;;-0.02;72.04;98811.43;125784;1096;104558;-73
2020/12/08 10:47:05;;;;;;;35.03;15.73;;;;;;;-0.02;72.14;98803.59;125979;1093;104605;-73
2020/12/08 10:49:32;;;;;;;36.40;17.60;;;;;;;-0.01;71.96;98810.52;125949;1093;104433;-71
2020/12/08 10:51:59;;;;;;;61.07;30.97;;;;;;;0.05;72.34;98810.29;125960;1093;104424;-72
2020/12/08 10:54:28;;;;;;;36.80;17.80;;;;;;;0.07;71.87;98807.64;126083;1093;104554;-73
2020/12/08 10:56:55;;;;;;;37.70;18.00;;;;;;;0.09;71.95;98809.28;126158;1099;104551;-72
2020/12/08 10:59:22;;;;;;;33.70;16.07;;;;;;;0.12;71.92;98808.34;126103;1093;104413;-71
2020/12/08 11:02:04;;;;;;;39.93;19.50;;;;;;;0.15;72.35;98813.47;126067;1098;104583;-71
2020/12/08 11:04:32;;;;;;;34.93;17.30;;;;;;;0.20;71.77;98805.45;126093;1098;104481;-72
2020/12/08 11:07:03;;;;;;;35.47;17.53;;;;;;;0.23;71.81;98810.58;126137;1099;104494;-73
2020/12/08 11:09:31;;;;;;;35.25;17.45;;;;;;;0.23;72.06;98803.58;125922;1096;104507;-74